Time;durP1;ratioP1;P1;durP2;ratioP2;P2;SDS_P1;SDS_P2;PMS_P1;PMS_P2;Temp;Humidity;BMP_temperature;BMP_pressure;BME280_temperature;BME280_humidity;BME280_pressure;Samples;Min_cycle;Max_cycle;Signal;HPM_P1;HPM_P2
2023/11/23 00:01:52;;;;;;;17.40;8.63;;;;;;;3.99;76.60;101096.84;10393636;28;20054;-80
2023/11/23 00:06:55;;;;;;;18.77;8.70;;;;;;;4.00;76.91;101090.59;10369488;28;20065;-81
2023/11/23 00:11:58;;;;;;;18.60;8.80;;;;;;;4.15;76.89;101068.69;10326525;28;20050;-83
2023/11/23 00:17:02;;;;;;;21.70;9.55;;;;;;;3.95;78.05;101082.84;10334183;28;20046;-82
2023/11/23 00:22:06;;;;;;;27.80;10.85;;;;;;;4.45;77.60;101080.72;10357561;28;20053;-81
2023/11/23 00:27:09;;;;;;;21.70;9.05;;;;;;;4.39;77.88;101081.84;10339648;28;20050;-80
2023/11/23 00:32:14;;;;;;;22.13;10.43;;;;;;;4.34;79.69;101067.88;10330855;28;20557;-83
2023/11/23 00:37:17;;;;;;;22.75;9.38;;;;;;;4.18;81.94;101075.66;10361470;28;20057;-81
2023/11/23 00:42:20;;;;;;;16.98;7.45;;;;;;;4.27;81.88;101066.41;10374073;28;20045;-81
2023/11/23 00:47:25;;;;;;;22.00;10.10;;;;;;;4.14;84.36;101066.06;10384134;28;20060;-82
2023/11/23 00:52:28;;;;;;;21.52;11.38;;;;;;;4.14;86.90;101044.78;10392350;28;20909;-82
2023/11/23 00:57:32;;;;;;;15.43;6.75;;;;;;;4.25;87.28;101028.38;10399173;28;20061;-79
2023/11/23 01:02:38;;;;;;;34.33;14.90;;;;;;;4.32;88.85;101029.84;10378937;28;20049;-81
2023/11/23 01:07:42;;;;;;;29.70;14.15;;;;;;;4.12;92.83;101042.22;10366610;28;20053;-81
2023/11/23 01:12:45;;;;;;;23.27;11.90;;;;;;;4.11;93.64;101043.16;10368874;28;20096;-82
2023/11/23 01:17:50;;;;;;;30.63;11.02;;;;;;;4.35;93.02;101013.72;10380270;28;20044;-80
2023/11/23 01:22:54;;;;;;;28.20;12.25;;;;;;;4.27;94.11;101018.53;10386587;28;20080;-83
2023/11/23 01:27:56;;;;;;;30.50;13.43;;;;;;;4.08;96.35;101027.31;10370972;28;20366;-82
2023/11/23 01:33:01;;;;;;;32.95;16.90;;;;;;;4.03;98.76;101009.84;10351560;28;20058;-81
2023/11/23 01:38:04;;;;;;;22.75;11.35;;;;;;;4.04;100.00;101000.94;10376457;28;20099;-81
2023/11/23 01:43:09;;;;;;;34.80;18.27;;;;;;;4.36;100.00;100997.72;10371767;28;20413;-82
2023/11/23 01:48:15;;;;;;;36.38;17.30;;;;;;;4.23;100.00;101004.53;10357480;28;20060;-82
2023/11/23 01:53:19;;;;;;;39.75;17.38;;;;;;;4.13;100.00;100998.72;10356570;28;20049;-82
2023/11/23 01:58:22;;;;;;;36.10;17.63;;;;;;;3.97;100.00;100992.34;10348451;28;20057;-82
2023/11/23 02:03:27;;;;;;;36.13;16.20;;;;;;;3.83;100.00;100998.28;10355496;28;20049;-84
2023/11/23 02:08:30;;;;;;;46.00;20.00;;;;;;;4.12;100.00;100986.38;10341479;28;20046;-83
2023/11/23 02:13:33;;;;;;;35.30;16.98;;;;;;;4.30;100.00;100986.47;10371888;28;20050;-82
2023/11/23 02:18:38;;;;;;;37.80;18.45;;;;;;;4.18;100.00;100993.22;10389975;28;20054;-81
2023/11/23 02:23:42;;;;;;;37.50;17.17;;;;;;;4.20;100.00;100985.16;10379233;28;20711;-83
2023/11/23 02:28:47;;;;;;;48.22;21.30;;;;;;;4.17;100.00;100984.38;10333362;28;20052;-84
2023/11/23 02:33:51;;;;;;;39.80;19.27;;;;;;;4.22;100.00;100970.00;10352456;28;20049;-84
2023/11/23 02:38:54;;;;;;;39.38;19.50;;;;;;;4.31;100.00;100972.25;10347692;28;20053;-84
2023/11/23 02:43:58;;;;;;;37.70;17.73;;;;;;;4.33;100.00;100965.06;10339307;28;20104;-82
2023/11/23 02:49:01;;;;;;;34.50;15.55;;;;;;;4.61;100.00;100976.16;10340654;28;20073;-81
2023/11/23 02:54:06;;;;;;;44.40;21.17;;;;;;;4.64;100.00;100974.28;10333307;28;20523;-82
2023/11/23 02:59:10;;;;;;;41.53;20.63;;;;;;;4.53;100.00;100954.38;10330725;28;20054;-82
2023/11/23 03:04:13;;;;;;;35.80;16.85;;;;;;;4.68;100.00;100955.44;10345893;28;20521;-81
2023/11/23 03:09:19;;;;;;;41.65;20.08;;;;;;;4.76;100.00;100952.41;10334089;28;20049;-83
2023/11/23 03:14:23;;;;;;;47.92;23.67;;;;;;;4.90;100.00;100965.91;10316956;28;20042;-82
2023/11/23 03:19:26;;;;;;;37.63;18.27;;;;;;;4.61;100.00;100946.88;10323279;28;20066;-83
2023/11/23 03:24:30;;;;;;;35.13;18.40;;;;;;;4.60;100.00;100921.19;10334937;28;20556;-81
2023/11/23 03:29:34;;;;;;;47.30;23.83;;;;;;;4.60;100.00;100936.31;10338288;28;20053;-81
2023/11/23 03:34:37;;;;;;;43.00;21.52;;;;;;;4.64;100.00;100924.59;10363954;28;20049;-81
2023/11/23 03:39:40;;;;;;;46.35;23.85;;;;;;;4.80;100.00;100919.38;10342047;28;20109;-84
2023/11/23 03:44:45;;;;;;;55.65;25.33;;;;;;;4.75;100.00;100913.44;10336489;28;20485;-84
2023/11/23 03:49:47;;;;;;;43.45;22.92;;;;;;;5.03;100.00;100903.19;10352360;28;20084;-82
2023/11/23 03:54:50;;;;;;;32.50;16.10;;;;;;;4.53;100.00;100901.16;10349358;28;20043;-83
2023/11/23 03:59:54;;;;;;;42.78;19.48;;;;;;;4.78;100.00;100890.19;10330205;28;20052;-83
2023/11/23 04:04:58;;;;;;;41.97;19.85;;;;;;;4.74;100.00;100909.03;10335856;28;20062;-80
2023/11/23 04:10:02;;;;;;;50.67;23.20;;;;;;;4.83;100.00;100897.97;10338737;28;20050;-82
2023/11/23 04:15:07;;;;;;;49.80;24.98;;;;;;;4.96;100.00;100871.56;10341403;28;20531;-81
2023/11/23 04:20:11;;;;;;;49.22;22.83;;;;;;;4.90;100.00;100858.56;10351789;28;21299;-82
2023/11/23 04:25:14;;;;;;;40.88;20.60;;;;;;;4.96;100.00;100880.41;10345889;28;20057;-82
2023/11/23 04:30:18;;;;;;;48.08;20.67;;;;;;;4.97;100.00;100875.97;10324605;28;20072;-81
2023/11/23 04:35:21;;;;;;;56.65;27.90;;;;;;;4.97;100.00;100882.16;10382671;28;20050;-82
2023/11/23 04:40:24;;;;;;;62.35;21.65;;;;;;;5.01;100.00;100870.44;10372601;28;20065;-84
2023/11/23 04:45:28;;;;;;;48.72;22.25;;;;;;;5.08;100.00;100854.16;10342101;28;20072;-84
2023/11/23 04:50:31;;;;;;;41.80;19.83;;;;;;;5.08;100.00;100851.50;10364180;28;20054;-83
2023/11/23 04:55:35;;;;;;;37.42;16.42;;;;;;;5.10;100.00;100860.25;10337856;28;20076;-83
2023/11/23 05:00:39;;;;;;;50.90;22.85;;;;;;;5.17;100.00;100854.53;10340578;28;20187;-83
2023/11/23 05:05:42;;;;;;;44.38;21.67;;;;;;;5.09;100.00;100855.88;10349109;28;20092;-84
2023/11/23 05:10:45;;;;;;;45.20;21.05;;;;;;;5.21;100.00;100860.56;10328063;28;20045;-82
2023/11/23 05:15:49;;;;;;;54.72;24.15;;;;;;;5.34;100.00;100847.50;10343578;28;20061;-83
2023/11/23 05:20:52;;;;;;;40.83;19.98;;;;;;;5.33;100.00;100864.44;10330707;28;20054;-84
2023/11/23 05:25:56;;;;;;;45.00;21.45;;;;;;;5.36;100.00;100854.47;10336281;28;20128;-83
2023/11/23 05:31:00;;;;;;;42.97;20.92;;;;;;;5.57;100.00;100859.59;10340715;28;20461;-81
2023/11/23 05:36:03;;;;;;;62.92;30.05;;;;;;;5.73;100.00;100850.72;10341708;28;20514;-81
2023/11/23 05:41:06;;;;;;;53.28;24.42;;;;;;;5.73;100.00;100861.41;10335683;28;20053;-84
2023/11/23 05:46:11;;;;;;;48.50;21.63;;;;;;;5.49;100.00;100842.22;10350072;28;20046;-82
2023/11/23 05:51:16;;;;;;;50.75;23.10;;;;;;;5.79;100.00;100827.31;10340921;28;20844;-82
2023/11/23 05:56:19;;;;;;;47.75;22.48;;;;;;;5.57;100.00;100817.84;10345009;28;20049;-84
2023/11/23 06:01:23;;;;;;;87.13;36.85;;;;;;;5.80;100.00;100827.25;10349321;28;20421;-81
2023/11/23 06:06:26;;;;;;;49.45;23.20;;;;;;;5.60;100.00;100800.84;10342532;28;20065;-84
2023/11/23 06:11:29;;;;;;;54.05;25.63;;;;;;;5.84;100.00;100809.28;10339668;28;21137;-82
2023/11/23 06:16:33;;;;;;;66.05;28.05;;;;;;;5.85;100.00;100795.03;10329726;28;20053;-82
2023/11/23 06:21:37;;;;;;;61.13;26.73;;;;;;;6.14;100.00;100774.72;10348534;28;20072;-83
2023/11/23 06:26:40;;;;;;;70.25;27.77;;;;;;;5.93;100.00;100783.00;10334800;28;20050;-83
2023/11/23 06:31:44;;;;;;;87.97;30.10;;;;;;;5.66;100.00;100773.84;10332776;28;20053;-82
2023/11/23 06:36:49;;;;;;;68.47;28.30;;;;;;;5.94;100.00;100776.69;10337518;28;20476;-82
2023/11/23 06:41:55;;;;;;;98.13;40.05;;;;;;;6.02;100.00;100775.44;10361939;28;20096;-81
2023/11/23 06:47:00;;;;;;;75.15;32.78;;;;;;;6.01;100.00;100773.72;10356163;28;20049;-82
2023/11/23 06:52:03;;;;;;;80.78;38.38;;;;;;;6.04;100.00;100785.06;10342689;28;20053;-82
2023/11/23 06:57:07;;;;;;;66.55;29.83;;;;;;;6.15;100.00;100771.13;10362293;28;20122;-82
2023/11/23 07:02:12;;;;;;;82.75;35.00;;;;;;;5.94;100.00;100790.03;10361260;28;20064;-83
2023/11/23 07:07:43;;;;;;;86.10;36.05;;;;;;;6.27;100.00;100770.41;10348141;28;20046;-81
2023/11/23 07:12:47;;;;;;;89.03;42.67;;;;;;;6.24;100.00;100767.06;10396513;28;20034;-81
2023/11/23 07:17:51;;;;;;;91.18;42.17;;;;;;;6.31;100.00;100768.47;10384824;28;20113;-81
2023/11/23 07:22:55;;;;;;;84.05;37.80;;;;;;;6.57;100.00;100764.28;10343782;28;20049;-81
2023/11/23 07:27:57;;;;;;;52.63;25.67;;;;;;;6.42;100.00;100771.38;10346237;28;20541;-81
2023/11/23 07:33:02;;;;;;;80.18;38.70;;;;;;;6.47;100.00;100755.06;10417157;28;20127;-82
2023/11/23 07:38:06;;;;;;;68.57;31.58;;;;;;;6.54;100.00;100743.09;10363146;28;20045;-81
2023/11/23 07:43:09;;;;;;;75.80;33.03;;;;;;;6.46;100.00;100753.34;10346599;28;20050;-81
2023/11/23 07:48:14;;;;;;;52.03;24.42;;;;;;;6.58;100.00;100747.28;10352647;28;20048;-81
2023/11/23 07:53:19;;;;;;;64.55;30.80;;;;;;;6.67;100.00;100738.75;10350607;28;20050;-81
2023/11/23 07:58:25;;;;;;;35.63;16.20;;;;;;;6.54;100.00;100727.09;10376122;28;20041;-82
2023/11/23 08:03:29;;;;;;;56.65;26.98;;;;;;;6.60;100.00;100729.38;10344603;28;20060;-83
2023/11/23 08:08:32;;;;;;;52.17;26.05;;;;;;;6.66;100.00;100723.66;10354966;28;21112;-85
2023/11/23 08:13:35;;;;;;;62.08;31.98;;;;;;;6.68;100.00;100723.59;10346580;28;20512;-86
2023/11/23 08:18:40;;;;;;;42.20;21.15;;;;;;;6.94;100.00;100712.25;10330720;28;20053;-82
2023/11/23 08:23:52;;;;;;;62.72;31.52;;;;;;;7.01;100.00;100702.91;10300579;28;20050;-82
2023/11/23 08:28:54;;;;;;;74.97;36.38;;;;;;;6.99;100.00;100693.25;10312793;28;20184;-83
2023/11/23 08:33:59;;;;;;;49.15;25.33;;;;;;;6.77;100.00;100697.19;10310786;28;20050;-81
2023/11/23 08:39:02;;;;;;;63.72;32.97;;;;;;;6.97;100.00;100698.72;10320029;28;20050;-81
2023/11/23 08:44:05;;;;;;;64.20;30.25;;;;;;;7.19;100.00;100702.75;10322544;28;20560;-83
2023/11/23 08:49:12;;;;;;;60.67;28.83;;;;;;;7.02;100.00;100693.94;10304018;28;20049;-80
2023/11/23 08:54:15;;;;;;;48.03;24.83;;;;;;;7.36;100.00;100681.16;10313609;28;20046;-80
2023/11/23 08:59:18;;;;;;;65.43;31.85;;;;;;;7.28;100.00;100665.59;10320961;28;20136;-83
2023/11/23 09:04:23;;;;;;;56.00;29.10;;;;;;;7.36;100.00;100674.97;10341724;28;20046;-82
2023/11/23 09:09:35;;;;;;;48.78;26.42;;;;;;;7.28;100.00;100654.06;10339782;28;20057;-83
2023/11/23 09:14:38;;;;;;;52.10;26.48;;;;;;;7.53;100.00;100655.19;10315208;28;20045;-83
2023/11/23 09:19:53;;;;;;;54.83;29.55;;;;;;;7.59;100.00;100668.13;10315515;28;20037;-82
2023/11/23 09:24:56;;;;;;;46.72;24.13;;;;;;;7.36;100.00;100650.91;10331647;28;20042;-80
2023/11/23 09:29:59;;;;;;;46.90;26.00;;;;;;;7.42;100.00;100637.16;10331879;28;20054;-83
2023/11/23 09:35:04;;;;;;;54.08;28.48;;;;;;;7.37;100.00;100631.22;10326455;28;20429;-82
2023/11/23 09:40:10;;;;;;;44.50;25.40;;;;;;;7.30;100.00;100630.78;10334142;28;20061;-81
2023/11/23 09:45:16;;;;;;;51.80;22.50;;;;;;;7.64;100.00;100634.81;10336059;28;20054;-82
2023/11/23 09:50:21;;;;;;;47.33;24.73;;;;;;;7.57;100.00;100636.19;10324863;28;20157;-81
2023/11/23 09:55:26;;;;;;;45.08;25.80;;;;;;;7.58;100.00;100615.63;10337654;28;20054;-80
2023/11/23 10:00:30;;;;;;;53.25;28.75;;;;;;;7.74;100.00;100616.34;10333781;28;20050;-79
2023/11/23 10:05:34;;;;;;;37.55;20.00;;;;;;;7.70;100.00;100590.75;10328294;28;20038;-80
2023/11/23 10:10:38;;;;;;;46.95;25.67;;;;;;;7.86;100.00;100569.22;10330643;28;20058;-82
2023/11/23 10:15:44;;;;;;;39.47;22.52;;;;;;;7.68;100.00;100548.09;10322676;28;20069;-81
2023/11/23 10:20:49;;;;;;;44.80;27.17;;;;;;;7.93;100.00;100557.16;10325270;28;20703;-80
2023/11/23 10:25:54;;;;;;;43.80;22.25;;;;;;;8.03;100.00;100552.88;10328259;28;20420;-82
2023/11/23 10:31:04;;;;;;;36.03;20.33;;;;;;;7.79;100.00;100544.72;10302656;28;20045;-81
2023/11/23 10:36:08;;;;;;;32.13;16.80;;;;;;;8.02;100.00;100544.97;10327296;28;20061;-82
2023/11/23 10:41:14;;;;;;;40.58;20.63;;;;;;;8.15;100.00;100544.03;10311362;28;20054;-80
2023/11/23 10:46:19;;;;;;;40.55;25.67;;;;;;;8.31;100.00;100524.22;10294841;28;20057;-80
2023/11/23 10:51:25;;;;;;;29.95;19.98;;;;;;;8.13;100.00;100523.69;10297873;28;20051;-81
2023/11/23 10:56:31;;;;;;;37.97;21.63;;;;;;;8.30;100.00;100499.28;10295770;28;20155;-80
2023/11/23 11:01:36;;;;;;;30.63;21.35;;;;;;;8.26;100.00;100486.25;10303315;28;20053;-80
2023/11/23 11:06:41;;;;;;;29.80;17.45;;;;;;;8.36;100.00;100468.56;10298592;28;20054;-81
2023/11/23 11:11:45;;;;;;;28.60;19.10;;;;;;;8.39;100.00;100455.84;10322113;28;20054;-80
2023/11/23 11:16:48;;;;;;;27.80;13.13;;;;;;;8.39;100.00;100445.13;10329426;28;20078;-83
2023/11/23 11:21:59;;;;;;;31.58;17.75;;;;;;;8.66;100.00;100451.31;10296218;28;20069;-80
2023/11/23 11:27:03;;;;;;;32.13;18.50;;;;;;;8.55;100.00;100468.16;10296567;28;20057;-80
2023/11/23 11:32:09;;;;;;;28.70;15.93;;;;;;;8.47;100.00;100444.59;10305401;28;20042;-80
2023/11/23 11:37:14;;;;;;;23.75;14.40;;;;;;;8.22;100.00;100448.13;10294852;28;20502;-80
2023/11/23 11:42:19;;;;;;;25.90;14.57;;;;;;;8.48;100.00;100473.09;10292466;28;20514;-82
2023/11/23 11:47:22;;;;;;;28.65;15.65;;;;;;;8.64;100.00;100419.31;10304546;28;20494;-82
2023/11/23 11:52:29;;;;;;;18.48;11.45;;;;;;;8.20;100.00;100412.59;10321491;28;20437;-82
2023/11/23 11:57:39;;;;;;;27.02;12.98;;;;;;;8.47;100.00;100392.88;10325896;28;20061;-82
2023/11/23 12:02:42;;;;;;;18.05;8.73;;;;;;;8.42;100.00;100392.31;10307068;28;20415;-81
2023/11/23 12:07:53;;;;;;;23.58;14.52;;;;;;;8.76;100.00;100396.13;10304742;28;20050;-82
2023/11/23 12:12:56;;;;;;;19.70;12.85;;;;;;;8.45;100.00;100394.75;10323962;28;20050;-81
2023/11/23 12:18:02;;;;;;;16.73;11.23;;;;;;;8.59;100.00;100347.34;10322481;28;20067;-83
2023/11/23 12:23:08;;;;;;;13.20;8.52;;;;;;;8.63;100.00;100342.59;10318263;28;20109;-82
2023/11/23 12:28:13;;;;;;;21.55;12.45;;;;;;;8.31;100.00;100364.53;10334333;28;20068;-83
2023/11/23 12:33:16;;;;;;;19.08;9.68;;;;;;;8.37;100.00;100357.88;10315715;28;20074;-82
2023/11/23 12:38:20;;;;;;;14.60;9.50;;;;;;;8.39;100.00;100348.75;10333979;28;20053;-81
2023/11/23 12:43:25;;;;;;;17.25;12.25;;;;;;;8.65;100.00;100310.38;10334535;28;20057;-81
2023/11/23 12:48:27;;;;;;;17.95;10.25;;;;;;;8.63;100.00;100320.31;10326160;28;20137;-82
2023/11/23 12:53:32;;;;;;;21.92;10.60;;;;;;;8.39;100.00;100311.28;10323834;28;20054;-81
2023/11/23 12:58:35;;;;;;;18.60;11.35;;;;;;;8.65;100.00;100321.06;10318358;28;20853;-81
2023/11/23 13:03:41;;;;;;;21.90;11.43;;;;;;;8.67;100.00;100327.19;10343107;28;20497;-78
2023/11/23 13:08:46;;;;;;;18.05;10.90;;;;;;;8.64;100.00;100320.22;10316181;28;20153;-79
2023/11/23 13:13:49;;;;;;;21.05;12.73;;;;;;;8.54;100.00;100285.22;10338861;28;20054;-81
2023/11/23 13:18:52;;;;;;;24.45;10.88;;;;;;;8.94;100.00;100302.81;10344480;28;20049;-79
2023/11/23 13:24:16;;;;;;;23.42;12.77;;;;;;;8.66;100.00;100282.59;10331411;28;20132;-81
2023/11/23 13:29:20;;;;;;;18.27;9.13;;;;;;;8.83;100.00;100301.81;10339166;28;21078;-82
2023/11/23 13:34:23;;;;;;;15.68;10.00;;;;;;;8.76;100.00;100286.31;10316743;28;20050;-81
2023/11/23 13:39:28;;;;;;;19.27;13.00;;;;;;;9.10;100.00;100259.63;10335206;28;20070;-82
2023/11/23 13:44:31;;;;;;;17.10;9.05;;;;;;;8.86;100.00;100278.44;10327530;28;20053;-80
2023/11/23 13:49:34;;;;;;;18.33;11.68;;;;;;;8.95;100.00;100259.84;10320774;28;20037;-81
2023/11/23 13:54:38;;;;;;;18.48;11.75;;;;;;;8.99;100.00;100271.16;10325156;28;20052;-81
2023/11/23 13:59:41;;;;;;;17.10;10.45;;;;;;;9.11;100.00;100242.59;10340497;28;20133;-81
2023/11/23 14:04:45;;;;;;;15.07;10.30;;;;;;;9.11;100.00;100256.84;10344076;28;20049;-80
2023/11/23 14:09:49;;;;;;;20.30;11.63;;;;;;;9.00;100.00;100240.75;10340805;28;20325;-81
2023/11/23 14:14:52;;;;;;;14.25;9.45;;;;;;;8.91;100.00;100207.44;10346445;28;20157;-78
2023/11/23 14:19:55;;;;;;;12.63;9.57;;;;;;;8.89;100.00;100198.72;10336834;28;20050;-79
2023/11/23 14:24:59;;;;;;;22.48;11.45;;;;;;;9.14;100.00;100203.00;10330365;28;20049;-81
2023/11/23 14:30:03;;;;;;;16.35;10.68;;;;;;;9.01;100.00;100175.47;10347404;28;20689;-80
2023/11/23 14:35:08;;;;;;;21.35;11.05;;;;;;;9.18;100.00;100193.75;10350316;28;20056;-82
2023/11/23 14:40:18;;;;;;;12.35;8.07;;;;;;;9.13;100.00;100171.81;10336393;28;20054;-82
2023/11/23 14:45:23;;;;;;;16.10;12.63;;;;;;;9.38;100.00;100156.47;10310735;28;20058;-81
2023/11/23 14:50:28;;;;;;;18.92;12.43;;;;;;;9.28;100.00;100165.25;10335434;28;20588;-81
2023/11/23 14:55:34;;;;;;;15.45;11.30;;;;;;;9.13;100.00;100165.59;10336585;28;20050;-82
2023/11/23 15:00:38;;;;;;;22.65;11.57;;;;;;;9.48;100.00;100163.66;10317955;28;20056;-80
2023/11/23 15:05:41;;;;;;;17.10;10.38;;;;;;;9.39;100.00;100148.31;10303891;28;20128;-80
2023/11/23 15:10:46;;;;;;;16.85;10.48;;;;;;;9.28;100.00;100137.59;10343683;28;20042;-79
2023/11/23 15:15:49;;;;;;;11.93;7.93;;;;;;;9.21;100.00;100139.91;10338757;28;20046;-81
2023/11/23 15:20:52;;;;;;;12.00;8.18;;;;;;;9.20;100.00;100115.91;10345094;28;20058;-79
2023/11/23 15:25:57;;;;;;;14.38;7.38;;;;;;;9.34;100.00;100114.81;10322537;28;20038;-81
2023/11/23 15:31:01;;;;;;;16.75;9.15;;;;;;;9.28;100.00;100097.41;10319890;28;20053;-81
2023/11/23 15:36:06;;;;;;;13.38;10.25;;;;;;;9.17;100.00;100102.75;10350840;28;20542;-81
2023/11/23 15:41:12;;;;;;;15.70;8.23;;;;;;;9.24;100.00;100088.75;10345319;28;20439;-81
2023/11/23 15:46:15;;;;;;;10.85;6.20;;;;;;;9.40;100.00;100092.88;10336843;28;20053;-79
2023/11/23 15:51:18;;;;;;;17.55;10.05;;;;;;;9.33;100.00;100063.03;10327306;28;20061;-80
2023/11/23 15:56:22;;;;;;;17.00;7.88;;;;;;;9.26;100.00;100054.63;10320024;28;20054;-81
2023/11/23 16:01:27;;;;;;;8.63;7.32;;;;;;;8.94;100.00;100073.31;10330764;28;20576;-82
2023/11/23 16:06:31;;;;;;;15.98;10.80;;;;;;;9.05;100.00;100032.22;10324945;28;20133;-84
2023/11/23 16:11:37;;;;;;;16.10;9.55;;;;;;;8.73;100.00;100053.56;10330215;28;20054;-84
2023/11/23 16:16:41;;;;;;;17.35;10.45;;;;;;;8.76;100.00;100046.13;10306210;28;20061;-82
2023/11/23 16:21:44;;;;;;;14.95;10.15;;;;;;;8.59;100.00;100034.06;10326081;28;20046;-83
2023/11/23 16:26:49;;;;;;;7.97;7.03;;;;;;;8.40;100.00;100048.00;10336994;28;20056;-82
2023/11/23 16:31:53;;;;;;;19.90;13.05;;;;;;;8.78;100.00;100035.31;10333300;28;20626;-83
2023/11/23 16:36:56;;;;;;;17.58;12.70;;;;;;;8.73;100.00;100032.13;10334729;28;20068;-81
2023/11/23 16:42:00;;;;;;;18.83;11.93;;;;;;;8.73;100.00;100008.88;10354066;28;20120;-82
2023/11/23 16:47:05;;;;;;;14.32;9.77;;;;;;;8.57;100.00;100025.31;10331287;28;20516;-82
2023/11/23 16:52:09;;;;;;;14.25;9.45;;;;;;;8.48;100.00;100001.09;10331656;28;20042;-80
2023/11/23 16:57:14;;;;;;;13.52;9.25;;;;;;;8.56;100.00;99983.44;10321699;28;20697;-79
2023/11/23 17:02:17;;;;;;;14.10;6.53;;;;;;;8.44;100.00;99981.69;10315604;28;20049;-81
2023/11/23 17:07:20;;;;;;;25.55;12.23;;;;;;;8.46;100.00;99985.13;10322929;28;20052;-79
2023/11/23 17:12:26;;;;;;;17.02;8.65;;;;;;;8.47;100.00;99948.50;10329694;28;20529;-81
2023/11/23 17:17:29;;;;;;;19.33;10.93;;;;;;;8.38;100.00;99955.41;10329501;28;20536;-81
2023/11/23 17:22:32;;;;;;;10.93;7.93;;;;;;;8.44;100.00;99946.03;10319300;28;20077;-81
2023/11/23 17:27:41;;;;;;;23.98;10.40;;;;;;;8.44;100.00;99935.34;10308685;28;20054;-82
2023/11/23 17:32:44;;;;;;;13.75;9.50;;;;;;;8.53;100.00;99929.28;10314750;28;20053;-81
2023/11/23 17:37:48;;;;;;;12.73;7.53;;;;;;;8.51;100.00;99917.88;10301052;28;20497;-83
2023/11/23 17:42:52;;;;;;;12.80;6.50;;;;;;;8.65;100.00;99898.00;10302730;28;20048;-81
2023/11/23 17:47:55;;;;;;;12.60;8.90;;;;;;;8.53;100.00;99908.75;10325973;28;20037;-81
2023/11/23 17:52:58;;;;;;;11.95;7.55;;;;;;;8.67;100.00;99912.97;10324313;28;20045;-81
2023/11/23 17:58:03;;;;;;;14.07;7.88;;;;;;;8.75;100.00;99912.34;10317494;28;20046;-80
2023/11/23 18:03:06;;;;;;;12.95;8.25;;;;;;;8.65;100.00;99885.47;10319397;28;20050;-78
2023/11/23 18:08:08;;;;;;;13.73;10.18;;;;;;;8.68;100.00;99879.03;10313506;28;20505;-80
2023/11/23 18:13:13;;;;;;;11.73;6.00;;;;;;;8.45;100.00;99870.13;10322250;28;20061;-80
2023/11/23 18:18:16;;;;;;;10.70;6.15;;;;;;;8.33;100.00;99880.84;10307285;28;20081;-79
2023/11/23 18:23:26;;;;;;;9.15;6.45;;;;;;;8.70;100.00;99845.78;10299740;28;20694;-80
2023/11/23 18:28:31;;;;;;;7.38;5.70;;;;;;;8.25;100.00;99844.97;10327124;28;21833;-81
2023/11/23 18:33:35;;;;;;;7.65;5.72;;;;;;;8.52;100.00;99837.41;10326253;28;20399;-81
2023/11/23 18:38:38;;;;;;;8.95;5.80;;;;;;;8.51;100.00;99846.44;10338400;28;20052;-79
2023/11/23 18:43:43;;;;;;;10.65;7.57;;;;;;;8.71;100.00;99833.25;10363143;28;20055;-78
2023/11/23 18:48:47;;;;;;;6.63;5.93;;;;;;;8.50;100.00;99817.97;10318851;28;20157;-80
2023/11/23 18:53:50;;;;;;;9.50;6.20;;;;;;;8.59;100.00;99811.00;10360107;28;20436;-80
2023/11/23 18:58:55;;;;;;;9.25;5.47;;;;;;;8.51;100.00;99802.75;10354767;28;20073;-80
2023/11/23 19:03:58;;;;;;;8.98;6.30;;;;;;;8.54;100.00;99800.69;10341123;28;20458;-80
2023/11/23 19:09:01;;;;;;;9.40;6.60;;;;;;;8.63;100.00;99792.88;10337216;28;20525;-80
2023/11/23 19:14:06;;;;;;;9.40;6.93;;;;;;;8.35;100.00;99781.72;10346074;28;20050;-79
2023/11/23 19:19:11;;;;;;;9.30;6.38;;;;;;;8.71;100.00;99796.59;10363837;28;20672;-80
2023/11/23 19:24:16;;;;;;;6.72;5.65;;;;;;;8.70;100.00;99786.88;10350489;28;20085;-80
2023/11/23 19:29:21;;;;;;;7.97;5.47;;;;;;;8.81;100.00;99783.31;10324906;28;20057;-81
2023/11/23 19:34:35;;;;;;;6.35;4.55;;;;;;;8.62;100.00;99754.53;10336729;28;20046;-81
2023/11/23 19:39:38;;;;;;;8.27;6.10;;;;;;;8.72;100.00;99752.81;10337790;28;20716;-80
2023/11/23 19:44:43;;;;;;;8.32;3.85;;;;;;;8.69;100.00;99725.41;10341249;28;20149;-80
2023/11/23 19:49:47;;;;;;;5.78;3.33;;;;;;;8.38;100.00;99738.63;10332780;28;20047;-79
2023/11/23 19:54:50;;;;;;;5.20;3.72;;;;;;;8.44;100.00;99754.19;10317274;28;20060;-80
2023/11/23 19:59:55;;;;;;;7.50;4.10;;;;;;;8.50;100.00;99812.63;10328608;28;20044;-78
2023/11/23 20:05:00;;;;;;;4.18;1.67;;;;;;;8.30;100.00;99773.19;10336653;28;20175;-80
2023/11/23 20:10:06;;;;;;;5.40;1.50;;;;;;;8.12;100.00;99775.56;10335698;28;20056;-80
2023/11/23 20:15:10;;;;;;;2.45;1.10;;;;;;;8.35;100.00;99771.00;10332678;28;20049;-82
2023/11/23 20:20:14;;;;;;;3.92;1.13;;;;;;;8.57;100.00;99781.69;10328735;28;20050;-82
2023/11/23 20:25:17;;;;;;;6.82;1.30;;;;;;;8.01;100.00;99792.47;10338346;28;20050;-82
2023/11/23 20:30:22;;;;;;;3.83;1.10;;;;;;;8.36;100.00;99788.75;10341406;28;20049;-81
2023/11/23 20:35:25;;;;;;;7.13;1.60;;;;;;;8.39;100.00;99783.16;10344050;28;20608;-82
2023/11/23 20:40:28;;;;;;;6.75;2.22;;;;;;;8.14;100.00;99779.78;10350082;28;20101;-80
2023/11/23 20:45:34;;;;;;;8.95;1.63;;;;;;;7.99;100.00;99782.84;10352436;28;20127;-82
2023/11/23 20:50:37;;;;;;;7.55;1.80;;;;;;;8.09;100.00;99776.66;10349222;28;20042;-80
2023/11/23 20:55:43;;;;;;;10.10;1.90;;;;;;;8.30;100.00;99789.25;10340011;28;20612;-80
2023/11/23 21:00:48;;;;;;;4.50;1.52;;;;;;;7.54;100.00;99797.03;10335437;28;20042;-81
2023/11/23 21:05:51;;;;;;;8.07;1.58;;;;;;;7.46;100.00;99788.75;10355181;28;20057;-81
2023/11/23 21:10:55;;;;;;;4.25;1.20;;;;;;;7.48;100.00;99797.50;10349501;28;20045;-81
2023/11/23 21:15:59;;;;;;;6.80;1.50;;;;;;;6.67;100.00;99806.31;10345912;28;21257;-81
2023/11/23 21:21:02;;;;;;;8.07;1.83;;;;;;;6.53;100.00;99802.00;10353142;28;20069;-81
2023/11/23 21:26:06;;;;;;;5.93;1.60;;;;;;;6.47;100.00;99789.94;10347829;28;20064;-80
2023/11/23 21:31:11;;;;;;;9.32;1.60;;;;;;;6.82;100.00;99778.47;10347818;28;20047;-80
2023/11/23 21:36:15;;;;;;;9.13;1.27;;;;;;;6.34;100.00;99763.31;10339760;28;20092;-82
2023/11/23 21:41:18;;;;;;;14.23;2.33;;;;;;;6.14;100.00;99751.44;10345507;28;20097;-80
2023/11/23 21:46:24;;;;;;;8.48;1.42;;;;;;;6.40;100.00;99730.84;10355094;28;20046;-79
2023/11/23 21:51:27;;;;;;;19.92;2.25;;;;;;;6.84;100.00;99760.53;10350176;28;20049;-82
2023/11/23 21:56:30;;;;;;;10.90;1.17;;;;;;;6.92;100.00;99749.31;10327930;28;20128;-81
2023/11/23 22:01:35;;;;;;;13.05;2.90;;;;;;;6.80;100.00;99727.00;10333439;28;20046;-81
2023/11/23 22:06:38;;;;;;;9.55;1.63;;;;;;;6.98;100.00;99735.47;10317246;28;20085;-81
2023/11/23 22:11:41;;;;;;;15.75;2.17;;;;;;;7.10;100.00;99747.03;10321239;28;20049;-81
2023/11/23 22:16:46;;;;;;;19.55;2.92;;;;;;;7.25;100.00;99743.19;10334158;28;20046;-81
2023/11/23 22:21:52;;;;;;;15.13;2.78;;;;;;;7.16;100.00;99768.78;10335665;28;20121;-80
2023/11/23 22:26:56;;;;;;;22.05;2.55;;;;;;;7.06;100.00;99797.16;10335130;28;20053;-81
2023/11/23 22:32:02;;;;;;;18.13;2.17;;;;;;;6.54;100.00;99811.69;10329080;28;20088;-81
2023/11/23 22:37:06;;;;;;;11.38;2.05;;;;;;;5.76;100.00;99778.19;10323322;28;20058;-83
2023/11/23 22:42:10;;;;;;;13.63;1.95;;;;;;;5.60;100.00;99781.06;10329648;28;21150;-79
2023/11/23 22:47:14;;;;;;;5.47;0.90;;;;;;;5.30;100.00;99797.34;10338445;28;20057;-80
2023/11/23 22:52:18;;;;;;;7.47;1.10;;;;;;;5.92;100.00;99797.47;10330790;28;20054;-82
2023/11/23 22:57:23;;;;;;;18.70;1.73;;;;;;;5.65;100.00;99807.38;10314704;28;20041;-83
2023/11/23 23:02:27;;;;;;;4.57;0.88;;;;;;;6.01;100.00;99819.94;10321214;28;20053;-82